Record high temperature 45.5°C Record low temperature -0.3°C Record high gust 85.1 km/h Record high average 77.7 km/h Record daily rain 139.6 mm Record low windchill -5.8°C Record high barometer 1043.6 hPa Record low barometer 978.0 hPa
Daily high pressure 1010.0 mb Daily low pressure 1007.6 mb Daily low windchill 17.1°C Daily high heat index 27.0°C Daily high gust speed 43.1 kmh ESE Daily high average speed 20.2 kmh ESE
MeteoMurcia.com
Ultima grabación a: 22:00 Data: 18 May 2024, time of next update: 22:05
Tiempo actualClear/Night Temperatura actual22.3°C (72.1°F) (Indice de Calor22.3°C ), Temperatura aparente 21.8°C
Temperatura máxima (desde medianoche)27.7°C at: 14:15 Temperatura mínima (desde medianoche)17.1°C at: 05:33
Velocidad media del viento (diez minutos)10.0 kmh (5.4 kts) Dirección del viento (diez minutos)NE (47°)
Temperatura aparente 22.3°C ráfagas maxima (última hora)21.6 kmh (11.7 kts) at: 21:34
ráfagas maxima (desde medianoche)43.1 kmh (23.3 kts) at: 14:43 Maximo media de un minuto (desde medianoche)20.2 kmh (10.9 kts) at: 15:18
Lluvia (última hora)0.0 mm Lluvia (desde medianoche)0.0 mm (0.00 in.)---
Lluvia Este mes 7.9 mm (0.31 in.) Lluvia Hasta la fecha este año60.8 mm (2.39 in.)
Lluvia máxima por minuto (última hora)0.0 mm/min Lluvia maxima por hora (últimas 6 horas)0.0 mm/hora
Lluvia de ayer 0.0 mm Punto de rocío 8.0°C (Wet Bulb :14.8°C )
Humedad 40 %, Humidex 22.7°C Barómetro corregido a msl1009.3 mb
cambio de presión+0.6 mb (última hora) Tendencia (últimas 1 hora)ELEVANDOSE SLOWLY
cambio de presión (últimas 12 horas)-0.7 mb cambio de presión (últimas 6 horas)+1.1 mb
Current Temp. Interna 28.1°C
Current Hum. Interna 33%


Última imagen cámara web


Weather report/warning/Metars

Murcia / Alcantarilla, Spain (LERI) 37-57N 001-14W 75M
May 18, 2024 - 02:00 PM EDT / 2024.05.18 1800 UTC
Wind: from the SSE (150 degrees) at 13 MPH (11 KT) (direction variable):0
Visibility: greater than 7 mile(s):0
Temperature: 77 F (25 C)
Dew Point: 44 F (7 C)
Relative Humidity: 31%
Pressure (altimeter): 29.80 in. Hg (1009 hPa)
ob: LERI 181800Z 15011KT 120V190 CAVOK 25/07 Q1009 NOSIG
cycle: 18
Station name not available
May 18, 2024 - 03:30 PM EDT / 2024.05.18 1930 UTC
Wind: from the SW (220 degrees) at 8 MPH (7 KT):0
Visibility: greater than 7 mile(s):0
Temperature: 68 F (20 C)
Dew Point: 46 F (8 C)
Relative Humidity: 45%
Pressure (altimeter): 29.83 in. Hg (1010 hPa)
ob: LEMI 181930Z 22007KT CAVOK 20/08 Q1010
cycle: 19
Alicante / El Altet, Spain (LEAL) 38-17N 000-33W 31M
May 18, 2024 - 03:30 PM EDT / 2024.05.18 1930 UTC
Wind: from the E (090 degrees) at 3 MPH (3 KT) (direction variable):0
Visibility: greater than 7 mile(s):0
Temperature: 66 F (19 C)
Dew Point: 59 F (15 C)
Relative Humidity: 77%
Pressure (altimeter): 29.83 in. Hg (1010 hPa)
ob: LEAL 181930Z 09003KT 060V140 CAVOK 19/15 Q1010 NOSIG
cycle: 19



La informacion se graba a intervalos de 2 minutos, pero hay info grabada cada minuto. Optimizado para 800*600 y Color verdadero. Use el boton de

Use the RECARGA en su navegador para recojer la ulima info.

Clicar aquí para regarga diaria de medias/extremas del mes














Created by "Weather Display" software version 10.37S151 at this start time/date 21:03:54 14/05/2024

La estación de MeteoMurcia.com, publica sus datos en los siguientes proyectos:

Weather Underground PWS IMURCIAP2 Meteoclimatic www.awekas.at

Web Analytics

Clicky